sensor_id;sensor_type;location;lat;lon;timestamp;pressure;altitude;pressure_sealevel;temperature;humidity
48774;BME280;34576;0.000;0.000;2023-01-25T00:03:44;97995.34;;;15.62;66.34
48774;BME280;34576;0.000;0.000;2023-01-25T00:10:47;97976.53;;;15.63;66.13
48774;BME280;34576;0.000;0.000;2023-01-25T00:17:49;97986.50;;;15.68;65.19
48774;BME280;34576;0.000;0.000;2023-01-25T00:24:49;97973.34;;;15.73;65.15
48774;BME280;34576;0.000;0.000;2023-01-25T00:38:56;97964.59;;;15.73;64.61
48774;BME280;34576;0.000;0.000;2023-01-25T00:46:00;97959.28;;;15.73;64.86
48774;BME280;34576;0.000;0.000;2023-01-25T00:53:00;97961.69;;;15.74;64.29
48774;BME280;34576;0.000;0.000;2023-01-25T01:00:00;97956.75;;;15.78;64.14
48774;BME280;34576;0.000;0.000;2023-01-25T01:07:01;97959.03;;;15.74;63.88
48774;BME280;34576;0.000;0.000;2023-01-25T01:14:01;97956.31;;;15.81;63.33
48774;BME280;34576;0.000;0.000;2023-01-25T01:21:05;97950.63;;;15.77;64.19
48774;BME280;34576;0.000;0.000;2023-01-25T01:28:05;97950.56;;;15.84;63.58
48774;BME280;34576;0.000;0.000;2023-01-25T01:35:05;97949.75;;;15.83;63.42
48774;BME280;34576;0.000;0.000;2023-01-25T01:42:06;97937.19;;;15.91;63.15
48774;BME280;34576;0.000;0.000;2023-01-25T01:49:26;97935.19;;;15.86;63.58
48774;BME280;34576;0.000;0.000;2023-01-25T01:56:35;97937.53;;;15.82;63.73
48774;BME280;34576;0.000;0.000;2023-01-25T02:03:38;97924.09;;;15.77;64.93
48774;BME280;34576;0.000;0.000;2023-01-25T02:10:40;97924.56;;;15.74;65.11
48774;BME280;34576;0.000;0.000;2023-01-25T02:17:41;97916.97;;;15.78;65.15
48774;BME280;34576;0.000;0.000;2023-01-25T02:24:46;97913.28;;;15.79;64.96
48774;BME280;34576;0.000;0.000;2023-01-25T02:31:50;97913.47;;;15.77;65.24
48774;BME280;34576;0.000;0.000;2023-01-25T02:39:11;97912.69;;;15.77;65.30
48774;BME280;34576;0.000;0.000;2023-01-25T02:53:44;97921.00;;;15.80;64.80
48774;BME280;34576;0.000;0.000;2023-01-25T03:00:44;97915.09;;;15.78;65.19
48774;BME280;34576;0.000;0.000;2023-01-25T03:07:45;97912.25;;;15.80;64.98
48774;BME280;34576;0.000;0.000;2023-01-25T03:14:46;97905.09;;;15.80;64.91
48774;BME280;34576;0.000;0.000;2023-01-25T03:21:47;97899.13;;;15.85;64.48
48774;BME280;34576;0.000;0.000;2023-01-25T03:28:48;97891.94;;;15.85;63.28
48774;BME280;34576;0.000;0.000;2023-01-25T03:35:54;97884.00;;;15.85;63.54
48774;BME280;34576;0.000;0.000;2023-01-25T03:42:55;97869.09;;;15.84;63.97
48774;BME280;34576;0.000;0.000;2023-01-25T03:49:56;97875.56;;;15.88;63.61
48774;BME280;34576;0.000;0.000;2023-01-25T03:56:56;97866.81;;;15.88;63.43
48774;BME280;34576;0.000;0.000;2023-01-25T04:03:58;97862.88;;;15.91;62.71
48774;BME280;34576;0.000;0.000;2023-01-25T04:10:59;97871.88;;;15.90;62.85
48774;BME280;34576;0.000;0.000;2023-01-25T04:18:00;97878.34;;;15.94;62.09
48774;BME280;34576;0.000;0.000;2023-01-25T04:25:02;97870.59;;;15.92;62.86
48774;BME280;34576;0.000;0.000;2023-01-25T04:32:02;97861.59;;;15.93;62.96
48774;BME280;34576;0.000;0.000;2023-01-25T04:39:03;97865.97;;;15.87;64.74
48774;BME280;34576;0.000;0.000;2023-01-25T04:46:04;97853.63;;;15.93;64.69
48774;BME280;34576;0.000;0.000;2023-01-25T04:53:06;97847.53;;;15.93;64.54
48774;BME280;34576;0.000;0.000;2023-01-25T05:00:07;97858.94;;;15.93;64.74
48774;BME280;34576;0.000;0.000;2023-01-25T05:07:07;97862.41;;;15.94;64.85
48774;BME280;34576;0.000;0.000;2023-01-25T05:14:08;97842.22;;;15.93;66.10
48774;BME280;34576;0.000;0.000;2023-01-25T05:21:08;97849.63;;;15.91;65.91
48774;BME280;34576;0.000;0.000;2023-01-25T05:28:29;97834.50;;;15.91;66.15
48774;BME280;34576;0.000;0.000;2023-01-25T05:35:42;97841.06;;;15.88;67.14
48774;BME280;34576;0.000;0.000;2023-01-25T05:42:44;97860.53;;;12.03;55.92
48774;BME280;34576;0.000;0.000;2023-01-25T05:49:49;97851.66;;;11.64;52.96
48774;BME280;34576;0.000;0.000;2023-01-25T05:57:01;97848.91;;;14.14;51.42
48774;BME280;34576;0.000;0.000;2023-01-25T06:04:02;97834.22;;;14.98;55.27
48774;BME280;34576;0.000;0.000;2023-01-25T06:11:13;97835.94;;;15.04;56.54
48774;BME280;34576;0.000;0.000;2023-01-25T06:18:17;97830.97;;;15.08;57.41
48774;BME280;34576;0.000;0.000;2023-01-25T06:25:31;97840.78;;;15.19;57.66
48774;BME280;34576;0.000;0.000;2023-01-25T06:32:32;97832.75;;;15.26;58.52
48774;BME280;34576;0.000;0.000;2023-01-25T06:39:32;97833.44;;;15.33;59.11
48774;BME280;34576;0.000;0.000;2023-01-25T06:46:32;97827.66;;;15.36;59.45
48774;BME280;34576;0.000;0.000;2023-01-25T06:53:33;97823.19;;;15.36;59.95
48774;BME280;34576;0.000;0.000;2023-01-25T07:00:34;97811.88;;;15.41;59.94
48774;BME280;34576;0.000;0.000;2023-01-25T07:07:34;97811.88;;;15.41;60.25
48774;BME280;34576;0.000;0.000;2023-01-25T07:14:35;97819.63;;;15.43;60.81
48774;BME280;34576;0.000;0.000;2023-01-25T07:21:35;97818.81;;;15.42;60.88
48774;BME280;34576;0.000;0.000;2023-01-25T07:28:35;97809.81;;;15.43;60.90
48774;BME280;34576;0.000;0.000;2023-01-25T07:35:36;97816.41;;;15.41;61.02
48774;BME280;34576;0.000;0.000;2023-01-25T07:42:36;97817.19;;;15.41;61.25
48774;BME280;34576;0.000;0.000;2023-01-25T07:49:45;97814.53;;;15.41;61.23
48774;BME280;34576;0.000;0.000;2023-01-25T07:56:45;97819.84;;;15.41;61.30
48774;BME280;34576;0.000;0.000;2023-01-25T08:03:46;97822.72;;;15.40;61.40
48774;BME280;34576;0.000;0.000;2023-01-25T08:10:46;97812.59;;;15.36;61.72
48774;BME280;34576;0.000;0.000;2023-01-25T08:17:46;97792.16;;;15.37;61.59
48774;BME280;34576;0.000;0.000;2023-01-25T08:24:47;97792.16;;;15.37;61.34
48774;BME280;34576;0.000;0.000;2023-01-25T08:31:47;97795.63;;;15.38;61.57
48774;BME280;34576;0.000;0.000;2023-01-25T08:38:47;97793.78;;;15.38;61.30
48774;BME280;34576;0.000;0.000;2023-01-25T08:45:55;97782.84;;;15.34;61.49
48774;BME280;34576;0.000;0.000;2023-01-25T08:52:56;97775.69;;;15.35;61.60
48774;BME280;34576;0.000;0.000;2023-01-25T08:59:56;97779.94;;;15.36;61.54
48774;BME280;34576;0.000;0.000;2023-01-25T09:06:56;97786.88;;;15.37;61.46
48774;BME280;34576;0.000;0.000;2023-01-25T09:13:56;97782.28;;;15.32;61.32
48774;BME280;34576;0.000;0.000;2023-01-25T09:20:57;97781.44;;;15.32;61.33
48774;BME280;34576;0.000;0.000;2023-01-25T09:27:57;97779.25;;;15.29;61.50
48774;BME280;34576;0.000;0.000;2023-01-25T09:34:58;97771.91;;;15.31;61.61
48774;BME280;34576;0.000;0.000;2023-01-25T09:56:23;97777.66;;;15.28;61.43
48774;BME280;34576;0.000;0.000;2023-01-25T10:03:32;97777.88;;;15.26;61.53
48774;BME280;34576;0.000;0.000;2023-01-25T10:10:38;97782.59;;;15.24;61.51
48774;BME280;34576;0.000;0.000;2023-01-25T10:17:39;97774.88;;;15.23;61.50
48774;BME280;34576;0.000;0.000;2023-01-25T10:31:45;97759.44;;;15.19;61.75
48774;BME280;34576;0.000;0.000;2023-01-25T10:38:46;97757.59;;;15.20;61.55
48774;BME280;34576;0.000;0.000;2023-01-25T10:45:48;97744.81;;;15.17;61.64
48774;BME280;34576;0.000;0.000;2023-01-25T10:52:56;97733.19;;;15.18;61.70
48774;BME280;34576;0.000;0.000;2023-01-25T10:59:56;97720.72;;;15.18;61.53
48774;BME280;34576;0.000;0.000;2023-01-25T11:06:58;97722.81;;;15.16;61.42
48774;BME280;34576;0.000;0.000;2023-01-25T11:13:58;97715.66;;;15.17;61.85
48774;BME280;34576;0.000;0.000;2023-01-25T11:28:19;97697.34;;;15.15;61.46
48774;BME280;34576;0.000;0.000;2023-01-25T11:35:20;97683.50;;;15.13;61.62
48774;BME280;34576;0.000;0.000;2023-01-25T11:49:42;97677.16;;;15.14;61.73
48774;BME280;34576;0.000;0.000;2023-01-25T12:25:51;97604.47;;;15.10;61.58
48774;BME280;34576;0.000;0.000;2023-01-25T12:33:05;97579.81;;;15.10;61.34
48774;BME280;34576;0.000;0.000;2023-01-25T12:40:10;97566.31;;;15.11;61.71
48774;BME280;34576;0.000;0.000;2023-01-25T12:54:31;97542.72;;;15.10;61.71
48774;BME280;34576;0.000;0.000;2023-01-25T13:01:34;97525.44;;;15.07;61.69
48774;BME280;34576;0.000;0.000;2023-01-25T13:15:38;97515.88;;;15.06;61.59
48774;BME280;34576;0.000;0.000;2023-01-25T13:29:42;97506.88;;;15.07;61.75
48774;BME280;34576;0.000;0.000;2023-01-25T13:36:46;97506.34;;;15.05;61.69
48774;BME280;34576;0.000;0.000;2023-01-25T13:43:47;97493.09;;;15.05;61.68
48774;BME280;34576;0.000;0.000;2023-01-25T13:50:56;97491.47;;;15.04;61.39
48774;BME280;34576;0.000;0.000;2023-01-25T13:58:07;97482.94;;;15.02;61.93
48774;BME280;34576;0.000;0.000;2023-01-25T14:05:21;97489.84;;;15.03;61.89
48774;BME280;34576;0.000;0.000;2023-01-25T14:12:29;97483.50;;;15.04;61.83
48774;BME280;34576;0.000;0.000;2023-01-25T14:19:31;97469.69;;;15.02;61.91
48774;BME280;34576;0.000;0.000;2023-01-25T14:26:31;97473.63;;;14.99;61.80
48774;BME280;34576;0.000;0.000;2023-01-25T14:33:33;97471.22;;;14.98;61.58
48774;BME280;34576;0.000;0.000;2023-01-25T14:40:43;97470.16;;;14.99;61.87
48774;BME280;34576;0.000;0.000;2023-01-25T14:47:44;97465.94;;;14.98;61.95
48774;BME280;34576;0.000;0.000;2023-01-25T15:01:51;97458.22;;;14.96;61.53
48774;BME280;34576;0.000;0.000;2023-01-25T15:08:53;97465.56;;;14.94;62.03
48774;BME280;34576;0.000;0.000;2023-01-25T15:15:54;97461.53;;;14.92;61.58
48774;BME280;34576;0.000;0.000;2023-01-25T15:22:58;97461.53;;;14.92;61.66
48774;BME280;34576;0.000;0.000;2023-01-25T15:29:59;97448.78;;;14.89;61.59
48774;BME280;34576;0.000;0.000;2023-01-25T15:36:59;97447.41;;;14.86;61.73
48774;BME280;34576;0.000;0.000;2023-01-25T15:43:59;97439.69;;;14.84;61.72
48774;BME280;34576;0.000;0.000;2023-01-25T15:51:00;97430.25;;;14.89;61.52
48774;BME280;34576;0.000;0.000;2023-01-25T15:58:01;97428.84;;;14.86;61.57
48774;BME280;34576;0.000;0.000;2023-01-25T16:05:01;97431.19;;;14.82;61.64
48774;BME280;34576;0.000;0.000;2023-01-25T16:12:01;97421.38;;;14.83;61.70
48774;BME280;34576;0.000;0.000;2023-01-25T16:19:02;97393.53;;;14.80;61.80
48774;BME280;34576;0.000;0.000;2023-01-25T16:26:02;97395.38;;;14.80;61.66
48774;BME280;34576;0.000;0.000;2023-01-25T16:33:03;97391.47;;;14.82;61.66
48774;BME280;34576;0.000;0.000;2023-01-25T16:40:03;97388.22;;;14.80;61.51
48774;BME280;34576;0.000;0.000;2023-01-25T16:47:05;97394.09;;;14.82;61.61
48774;BME280;34576;0.000;0.000;2023-01-25T16:54:05;97379.72;;;14.78;61.65
48774;BME280;34576;0.000;0.000;2023-01-25T17:01:09;97369.69;;;14.80;61.40
48774;BME280;34576;0.000;0.000;2023-01-25T17:08:09;97361.97;;;14.79;61.36
48774;BME280;34576;0.000;0.000;2023-01-25T17:15:10;97364.38;;;14.80;61.61
48774;BME280;34576;0.000;0.000;2023-01-25T17:22:10;97367.63;;;14.82;61.63
48774;BME280;34576;0.000;0.000;2023-01-25T17:29:10;97368.34;;;14.78;61.45
48774;BME280;34576;0.000;0.000;2023-01-25T17:36:12;97363.84;;;14.78;61.37
48774;BME280;34576;0.000;0.000;2023-01-25T17:43:13;97363.25;;;14.76;61.25
48774;BME280;34576;0.000;0.000;2023-01-25T17:50:13;97354.63;;;14.81;61.41
48774;BME280;34576;0.000;0.000;2023-01-25T17:57:14;97342.34;;;14.92;60.11
48774;BME280;34576;0.000;0.000;2023-01-25T18:04:15;97343.97;;;14.93;59.78
48774;BME280;34576;0.000;0.000;2023-01-25T18:11:17;97345.31;;;14.95;59.91
48774;BME280;34576;0.000;0.000;2023-01-25T18:18:18;97342.44;;;14.97;59.96
48774;BME280;34576;0.000;0.000;2023-01-25T18:25:26;97331.84;;;14.97;59.50
48774;BME280;34576;0.000;0.000;2023-01-25T18:32:27;97333.69;;;14.96;60.47
48774;BME280;34576;0.000;0.000;2023-01-25T18:39:29;97328.41;;;14.96;60.11
48774;BME280;34576;0.000;0.000;2023-01-25T18:46:29;97322.53;;;14.94;59.79
48774;BME280;34576;0.000;0.000;2023-01-25T18:53:30;97324.13;;;14.95;59.93
48774;BME280;34576;0.000;0.000;2023-01-25T19:00:31;97322.28;;;14.96;59.96
48774;BME280;34576;0.000;0.000;2023-01-25T19:07:31;97317.56;;;14.98;60.35
48774;BME280;34576;0.000;0.000;2023-01-25T19:14:32;97312.25;;;14.98;61.84
48774;BME280;34576;0.000;0.000;2023-01-25T19:21:32;97307.75;;;14.98;61.71
48774;BME280;34576;0.000;0.000;2023-01-25T19:28:33;97299.81;;;14.98;61.45
48774;BME280;34576;0.000;0.000;2023-01-25T19:35:33;97287.03;;;14.95;61.26
48774;BME280;34576;0.000;0.000;2023-01-25T19:42:34;97283.56;;;14.95;61.14
48774;BME280;34576;0.000;0.000;2023-01-25T19:49:34;97276.22;;;14.97;60.67
48774;BME280;34576;0.000;0.000;2023-01-25T19:56:38;97271.69;;;14.97;60.49
48774;BME280;34576;0.000;0.000;2023-01-25T20:03:39;97262.47;;;15.00;60.36
48774;BME280;34576;0.000;0.000;2023-01-25T20:10:40;97259.81;;;15.00;60.28
48774;BME280;34576;0.000;0.000;2023-01-25T20:17:40;97252.44;;;15.02;61.47
48774;BME280;34576;0.000;0.000;2023-01-25T20:24:42;97247.38;;;15.00;62.53
48774;BME280;34576;0.000;0.000;2023-01-25T20:31:43;97249.78;;;15.02;61.56
48774;BME280;34576;0.000;0.000;2023-01-25T20:38:44;97234.69;;;15.02;61.45
48774;BME280;34576;0.000;0.000;2023-01-25T20:45:50;97230.19;;;15.03;61.27
48774;BME280;34576;0.000;0.000;2023-01-25T20:52:51;97226.81;;;15.08;61.22
48774;BME280;34576;0.000;0.000;2023-01-25T20:59:52;97225.38;;;15.17;62.54
48774;BME280;34576;0.000;0.000;2023-01-25T21:06:52;97213.38;;;15.31;63.03
48774;BME280;34576;0.000;0.000;2023-01-25T21:13:53;97217.31;;;15.29;62.41
48774;BME280;34576;0.000;0.000;2023-01-25T21:20:57;97217.31;;;15.29;62.07
48774;BME280;34576;0.000;0.000;2023-01-25T21:27:58;97202.78;;;15.31;61.84
48774;BME280;34576;0.000;0.000;2023-01-25T21:34:58;97196.19;;;15.34;61.61
48774;BME280;34576;0.000;0.000;2023-01-25T21:41:58;97201.47;;;15.34;61.71
48774;BME280;34576;0.000;0.000;2023-01-25T21:48:59;97194.66;;;15.38;61.73
48774;BME280;34576;0.000;0.000;2023-01-25T21:56:19;97186.13;;;15.36;61.61
48774;BME280;34576;0.000;0.000;2023-01-25T22:03:19;97171.03;;;15.36;61.94
48774;BME280;34576;0.000;0.000;2023-01-25T22:10:19;97158.56;;;15.37;61.59
48774;BME280;34576;0.000;0.000;2023-01-25T22:17:19;97154.56;;;15.34;61.85
48774;BME280;34576;0.000;0.000;2023-01-25T22:24:21;97159.63;;;15.36;61.83
48774;BME280;34576;0.000;0.000;2023-01-25T22:31:22;97153.53;;;15.35;61.43
48774;BME280;34576;0.000;0.000;2023-01-25T22:38:23;97145.81;;;15.34;61.48
48774;BME280;34576;0.000;0.000;2023-01-25T22:45:23;97148.47;;;15.34;61.41
48774;BME280;34576;0.000;0.000;2023-01-25T22:52:23;97138.41;;;15.36;61.28
48774;BME280;34576;0.000;0.000;2023-01-25T22:59:24;97151.13;;;15.34;60.94
48774;BME280;34576;0.000;0.000;2023-01-25T23:06:25;97135.22;;;15.34;60.94
48774;BME280;34576;0.000;0.000;2023-01-25T23:13:26;97129.13;;;15.33;60.68
48774;BME280;34576;0.000;0.000;2023-01-25T23:20:27;97117.28;;;15.41;61.30
48774;BME280;34576;0.000;0.000;2023-01-25T23:27:28;97123.81;;;15.33;62.10
48774;BME280;34576;0.000;0.000;2023-01-25T23:34:28;97108.13;;;15.32;62.65
48774;BME280;34576;0.000;0.000;2023-01-25T23:41:33;97107.09;;;15.33;62.77
48774;BME280;34576;0.000;0.000;2023-01-25T23:48:34;97096.75;;;15.31;62.95
48774;BME280;34576;0.000;0.000;2023-01-25T23:55:34;97092.75;;;15.29;63.14
